Latest Weather Observations for Mandora

IDW60801

Issued at 4:13 am WST Tuesday 24 September 2019 (issued every 10 minutes, with the page automatically refreshed every 10 minutes)

About weather observations | Map of weather stations | Latest weather observations for WA | Other Formats
Station Details ID: 004019 Name: MANDORA Lat: -19.74 Lon: 120.84 Height: 7.5 m
Data from the previous 72 hours. | See also: Recent months at Mandora
Date/Time
WST
Temp
°C
App
Temp
°C
Dew
Point
°C
Rel
Hum
%
Delta-T
°C
Wind Press
QNH
hPa
Press
MSL
hPa
Rain since
9am
mm
Dir  Spd
km/h
Gust
km/h
Spd
kts
Gust
kts
24/04:00am 18.0 15.5 11.1 64 3.7 ESE 15 22 8 12 1019.2 1019.1 0.0
24/03:30am 18.4 15.5 11.0 62 4.0 ESE 17 24 9 13 1019.0 1018.9 0.0
24/03:00am 18.8 15.8 10.6 59 4.4 ESE 17 33 9 18 1018.8 1018.7 0.0
24/02:30am 19.3 15.9 10.6 57 4.7 ESE 19 28 10 15 1019.0 1018.9 0.0
24/02:00am 19.9 16.4 10.3 54 5.2 ESE 19 33 10 18 1019.0 1018.9 0.0
24/01:30am 20.3 16.8 10.1 52 5.5 ESE 19 30 10 16 1019.1 1019.0 0.0
24/01:00am 20.9 17.2 10.1 50 5.8 ESE 20 43 11 23 1019.1 1019.0 0.0
24/12:30am 21.4 18.2 9.9 48 6.2 ESE 17 26 9 14 1019.2 1019.1 0.0
24/12:00am 22.1 18.4 9.3 44 6.8 ESE 19 32 10 17 1019.4 1019.3 0.0
 
Date/Time
WST
Temp
°C
App
Temp
°C
Dew
Point
°C
Rel
Hum
%
Delta-T
°C
Wind Press
QNH
hPa
Press
MSL
hPa
Rain since
9am
mm
Dir  Spd
km/h
Gust
km/h
Spd
kts
Gust
kts
23/11:30pm 22.5 19.0 8.6 41 7.4 ESE 17 24 9 13 1019.3 1019.2 0.0
23/11:00pm 22.9 19.3 8.2 39 7.7 ESE 17 26 9 14 1019.4 1019.3 0.0
23/10:30pm 23.5 19.7 7.6 36 8.3 ESE 17 26 9 14 1019.4 1019.3 0.0
23/10:00pm 23.9 20.2 7.9 36 8.4 ESE 17 28 9 15 1019.2 1019.1 0.0
23/09:30pm 23.9 20.6 7.9 36 8.4 ESE 15 22 8 12 1019.3 1019.2 0.0
23/09:00pm 24.4 21.0 7.5 34 8.9 E 15 26 8 14 1019.2 1019.1 0.0
23/08:30pm 25.1 21.2 7.3 32 9.4 E 17 26 9 14 1019.0 1018.9 0.0
23/08:00pm 25.7 22.1 6.8 30 9.9 E 15 28 8 15 1018.8 1018.7 0.0
23/07:30pm 26.2 23.0 6.8 29 10.2 E 13 24 7 13 1018.4 1018.3 0.0
23/07:00pm 27.3 24.3 6.1 26 11.0 E 11 17 6 9 1017.8 1017.7 0.0
23/06:30pm 28.1 25.0 5.6 24 11.7 E 11 17 6 9 1017.3 1017.2 0.0
23/06:00pm 28.9 25.5 5.7 23 12.1 E 13 20 7 11 1016.8 1016.7 0.0
23/05:30pm 30.2 26.3 5.5 21 13.0 E 15 24 8 13 1016.2 1016.1 0.0
23/05:00pm 31.4 27.4 5.0 19 13.8 E 15 30 8 16 1015.8 1015.7 0.0
23/04:30pm 32.3 28.1 5.7 19 14.2 E 17 30 9 16 1015.3 1015.2 0.0
23/04:00pm 33.1 28.9 5.6 18 14.7 E 17 26 9 14 1015.1 1015.0 0.0
23/03:30pm 33.8 29.4 2.6 14 16.0 E 15 26 8 14 1015.0 1014.9 0.0
23/03:00pm 33.7 29.6 2.5 14 15.9 E 13 26 7 14 1015.0 1014.9 0.0
23/02:30pm 33.6 28.8 2.4 14 15.9 SSE 17 28 9 15 1015.2 1015.1 0.0
23/02:00pm 34.0 30.4 2.8 14 16.0 ESE 11 17 6 9 1015.5 1015.4 0.0
23/01:30pm 33.9 29.3 3.7 15 15.7 ESE 17 32 9 17 1016.0 1015.9 0.0
23/01:00pm 33.8 29.4 4.5 16 15.4 E 17 30 9 16 1016.4 1016.3 0.0
23/12:30pm 32.9 28.1 5.5 18 14.6 ESE 20 33 11 18 1016.9 1016.8 0.0
23/12:00pm 32.1 27.1 4.8 18 14.3 ESE 20 33 11 18 1017.6 1017.5 0.0
23/11:30am 31.5 25.8 5.1 19 13.9 ESE 24 39 13 21 1018.1 1018.0 0.0
23/11:00am 30.8 25.3 6.0 21 13.2 E 24 41 13 22 1018.6 1018.5 0.0
23/10:30am 31.1 26.3 5.5 20 13.5 E 20 39 11 21 1019.0 1018.9 0.0
23/10:00am 29.3 23.2 6.7 24 12.0 ESE 28 41 15 22 1019.2 1019.1 0.0
23/09:30am 28.6 23.8 7.2 26 11.5 ESE 22 41 12 22 1019.2 1019.1 0.0
23/09:00am 27.1 21.6 7.5 29 10.4 ESE 26 44 14 24 1019.3 1019.2 0.0
23/08:30am 26.5 22.2 8.0 31 9.9 ESE 20 35 11 19 1019.3 1019.2 0.0
23/08:00am 24.3 19.0 7.0 33 9.0 ESE 24 39 13 21 1019.3 1019.2 0.0
23/07:30am 23.0 18.4 6.7 35 8.4 ESE 20 32 11 17 1019.0 1018.9 0.0
23/07:00am 21.3 17.5 6.0 37 7.7 SE 15 22 8 12 1018.6 1018.5 0.0
23/06:30am 20.0 16.9 5.6 39 7.1 SE 11 17 6 9 1018.2 1018.1 0.0
23/06:00am 19.4 16.1 4.4 37 7.2 SE 11 17 6 9 1017.8 1017.7 0.0
23/05:30am 19.8 16.3 3.5 34 7.7 SE 11 20 6 11 1017.5 1017.4 0.0
23/05:00am 20.5 16.6 3.3 32 8.1 SE 13 26 7 14 1017.2 1017.1 0.0
23/04:30am 20.6 16.8 1.5 28 8.7 SE 11 19 6 10 1016.9 1016.8 0.0
23/04:00am 21.0 16.7 0.8 26 9.1 SE 13 20 7 11 1016.5 1016.4 0.0
23/03:30am 21.0 16.5 -0.3 24 9.4 SSE 13 17 7 9 1016.3 1016.2 0.0
23/03:00am 21.2 16.6 -1.3 22 9.8 SSE 13 20 7 11 1016.3 1016.2 0.0
23/02:30am 21.4 16.2 -2.5 20 10.2 SSE 15 20 8 11 1016.5 1016.4 0.0
23/02:00am 21.8 16.5 -3.5 18 10.6 SSE 15 22 8 12 1016.6 1016.5 0.0
23/01:30am 21.7 16.2 -5.2 16 10.9 SSE 15 20 8 11 1016.7 1016.6 0.0
23/01:00am 22.0 16.4 -6.7 14 11.3 SSE 15 20 8 11 1017.0 1016.9 0.0
23/12:30am 22.0 16.3 -7.6 13 11.5 SSE 15 20 8 11 1017.2 1017.1 0.0
23/12:00am 22.2 16.5 -7.5 13 11.5 SSE 15 20 8 11 1017.4 1017.3 0.0
 
Date/Time
WST
Temp
°C
App
Temp
°C
Dew
Point
°C
Rel
Hum
%
Delta-T
°C
Wind Press
QNH
hPa
Press
MSL
hPa
Rain since
9am
mm
Dir  Spd
km/h
Gust
km/h
Spd
kts
Gust
kts
22/11:30pm 22.8 17.0 -8.1 12 11.9 SSE 15 19 8 10 1017.4 1017.3 0.0
22/11:00pm 23.4 17.6 -8.7 11 12.3 SSE 15 20 8 11 1017.4 1017.3 0.0
22/10:30pm 24.1 18.7 -8.2 11 12.6 SSE 13 19 7 10 1017.4 1017.3 0.0
22/10:00pm 25.2 19.8 -8.5 10 13.2 SSE 13 24 7 13 1017.2 1017.1 0.0
22/09:30pm 25.8 19.7 -8.1 10 13.5 SSE 17 22 9 12 1017.2 1017.1 0.0
22/09:00pm 26.8 20.6 -8.7 9 14.1 SSE 17 26 9 14 1017.1 1017.0 0.0
22/08:30pm 27.2 21.0 -8.4 9 14.3 SSE 17 28 9 15 1016.7 1016.6 0.0
22/08:00pm 27.8 21.7 -7.9 9 14.5 SSE 17 26 9 14 1016.5 1016.4 0.0
22/07:30pm 28.2 22.5 -7.6 9 14.7 SSE 15 24 8 13 1016.1 1016.0 0.0
22/07:00pm 28.9 22.9 -7.1 9 15.0 SSE 17 24 9 13 1015.7 1015.6 0.0
22/06:30pm 30.1 24.8 -7.7 8 15.8 SE 13 24 7 13 1015.4 1015.3 0.0
22/06:00pm 30.5 25.7 -5.9 9 15.7 SSE 11 19 6 10 1014.9 1014.8 0.0
22/05:30pm 31.3 27.0 -5.3 9 16.1 SE 9 13 5 7 1014.6 1014.5 0.0
22/05:00pm 31.9 27.6 -4.9 9 16.4 SE 9 13 5 7 1014.5 1014.4 0.0
22/04:30pm 32.3 27.6 -4.6 9 16.6 ESE 11 17 6 9 1014.3 1014.2 0.0
22/04:00pm 32.9 28.9 -5.7 8 17.1 E 7 13 4 7 1014.3 1014.2 0.0
22/03:30pm 33.1 28.4 -5.5 8 17.2 SE 11 24 6 13 1014.2 1014.1 0.0
22/03:00pm 33.9 29.6 -4.9 8 17.5 E 9 17 5 9 1014.3 1014.2 0.0
22/02:30pm 34.6 30.2 -6.2 7 18.2 E 9 20 5 11 1014.6 1014.5 0.0
22/02:00pm 34.3 29.5 -6.4 7 18.0 SE 11 30 6 16 1014.8 1014.7 0.0
22/01:30pm 34.1 28.1 -6.5 7 17.9 SSE 17 30 9 16 1015.1 1015.0 0.0
22/01:00pm 33.1 26.7 -7.3 7 17.4 ESE 19 33 10 18 1015.7 1015.6 0.0
22/12:30pm 33.2 27.1 -7.2 7 17.5 ESE 17 30 9 16 1015.9 1015.8 0.0
22/12:00pm 32.6 26.3 -5.9 8 16.9 SE 19 35 10 19 1016.4 1016.3 0.0
22/11:30am 31.9 25.4 -8.1 7 16.9 SE 19 32 10 17 1016.8 1016.7 0.0
22/11:00am 30.8 23.7 -8.9 7 16.3 SE 22 35 12 19 1017.4 1017.3 0.0
22/10:30am 29.5 22.3 -9.9 7 15.8 SE 22 41 12 22 1018.0 1017.9 0.0
22/10:00am 28.9 21.0 -8.6 8 15.2 SE 26 41 14 22 1018.4 1018.3 0.0
22/09:30am 27.5 19.5 -9.7 8 14.6 SE 26 41 14 22 1018.5 1018.4 0.0
22/09:20am 27.2 18.8 -9.9 8 14.5 ESE 28 48 15 26 1018.5 1018.4 0.0
22/09:00am 26.5 18.5 -10.4 8 14.2 SE 26 43 14 23 1018.6 1018.5 0.0
22/08:48am 26.0 17.6 -10.8 8 14.0 SE 28 48 15 26 1018.6 1018.5 0.0
22/08:30am 25.3 17.2 -11.3 8 13.7 SE 26 43 14 23 1018.7 1018.6 0.0
22/08:10am 24.0 15.6 -10.8 9 12.9 SE 28 46 15 25 1018.7 1018.6 0.0
22/08:00am 23.8 15.7 -10.9 9 12.8 SE 26 44 14 24 1018.7 1018.6 0.0
22/07:56am 23.3 14.8 -11.3 9 12.6 SE 28 46 15 25 1018.7 1018.6 0.0
22/07:30am 22.4 14.3 -12.0 9 12.3 SE 26 39 14 21 1018.5 1018.4 0.0
22/07:00am 21.1 13.7 -11.7 10 11.6 SE 22 43 12 23 1018.2 1018.1 0.0
22/06:30am 19.4 12.5 -13.0 10 10.9 SE 19 30 10 16 1018.1 1018.0 0.0
22/06:00am 18.3 12.2 -12.6 11 10.3 SE 15 24 8 13 1017.9 1017.8 0.0
22/05:30am 18.6 12.1 -13.6 10 10.6 SSE 17 28 9 15 1017.5 1017.4 0.0
22/05:00am 18.5 12.4 -13.6 10 10.5 SSE 15 22 8 12 1017.1 1017.0 0.0
22/04:30am 18.9 12.8 -13.3 10 10.7 SSE 15 24 8 13 1016.6 1016.5 0.0
22/04:00am 19.1 13.3 -14.5 9 10.9 SSE 13 20 7 11 1016.1 1016.0 0.0
22/03:30am 19.5 13.3 -14.2 9 11.1 SSE 15 20 8 11 1015.8 1015.7 0.0
22/03:00am 19.9 13.7 -13.9 9 11.3 SSE 15 22 8 12 1015.6 1015.5 0.0
22/02:30am 20.1 14.0 -12.4 10 11.2 SSE 15 20 8 11 1015.6 1015.5 0.0
22/02:00am 20.3 14.2 -12.3 10 11.3 SSE 15 20 8 11 1015.6 1015.5 0.0
22/01:30am 20.3 14.7 -11.1 11 11.1 SSE 13 20 7 11 1015.8 1015.7 0.0
22/01:00am 20.5 14.9 -10.9 11 11.2 SSE 13 22 7 12 1015.8 1015.7 0.0
22/12:30am 20.7 15.2 -9.7 12 11.1 SSE 13 19 7 10 1015.9 1015.8 0.0
22/12:00am 21.4 15.1 -10.2 11 11.5 SSE 17 26 9 14 1016.1 1016.0 0.0
 
Date/Time
WST
Temp
°C
App
Temp
°C
Dew
Point
°C
Rel
Hum
%
Delta-T
°C
Wind Press
QNH
hPa
Press
MSL
hPa
Rain since
9am
mm
Dir  Spd
km/h
Gust
km/h
Spd
kts
Gust
kts
21/11:30pm 22.0 16.1 -9.8 11 11.8 SSE 15 22 8 12 1016.3 1016.2 0.0
21/11:00pm 22.5 16.3 -9.4 11 12.0 SSE 17 26 9 14 1016.2 1016.1 0.0
21/10:30pm 22.4 16.2 -9.5 11 11.9 SSE 17 22 9 12 1016.1 1016.0 0.0
21/10:00pm 22.2 16.0 -8.5 12 11.7 SSE 17 22 9 12 1016.1 1016.0 0.0
21/09:30pm 21.7 16.0 -7.9 13 11.3 SSE 15 20 8 11 1016.2 1016.1 0.0
21/09:00pm 22.6 16.5 -8.2 12 11.8 SSE 17 20 9 11 1016.0 1015.9 0.0
21/08:30pm 22.8 17.0 -8.1 12 11.9 SSE 15 20 8 11 1015.8 1015.7 0.0
21/08:00pm 23.0 17.3 -7.9 12 12.0 SSE 15 19 8 10 1015.6 1015.5 0.0
21/07:30pm 23.5 18.2 -7.5 12 12.2 SSE 13 17 7 9 1015.4 1015.3 0.0
21/07:00pm 23.3 18.1 -6.6 13 11.9 SSE 13 15 7 8 1015.1 1015.0 0.0
21/06:30pm 23.5 19.1 -5.5 14 11.9 SSE 9 11 5 6 1014.7 1014.6 0.0
21/06:00pm 25.9 22.0 -4.6 13 13.0 SE 7 9 4 5 1014.5 1014.4 0.0
21/05:30pm 29.5 25.5 -5.3 10 15.1 ESE 7 11 4 6 1014.1 1014.0 0.0
21/05:00pm 30.6 25.8 -5.8 9 15.8 ENE 11 17 6 9 1013.9 1013.8 0.0
21/04:30pm 31.5 26.8 -5.2 9 16.2 E 11 20 6 11 1013.7 1013.6 0.0
21/04:00pm 32.0 26.6 -8.1 7 16.9 SE 13 20 7 11 1013.7 1013.6 0.0
21/03:30pm 32.0 26.8 -6.3 8 16.7 ESE 13 24 7 13 1013.7 1013.6 0.0
21/03:00pm 31.8 26.0 -8.2 7 16.8 SE 15 26 8 14 1013.9 1013.8 0.0
21/02:30pm 32.4 26.7 -7.8 7 17.1 ESE 15 24 8 13 1014.2 1014.1 0.0
21/02:00pm 31.4 25.2 -8.5 7 16.6 ESE 17 30 9 16 1014.5 1014.4 0.0
21/01:30pm 31.3 25.1 -8.6 7 16.6 ESE 17 28 9 15 1014.8 1014.7 0.0
21/01:00pm 31.6 25.1 -8.3 7 16.7 SE 19 30 10 16 1015.4 1015.3 0.0
21/12:30pm 30.9 24.1 -8.9 7 16.4 ESE 20 32 11 17 1015.8 1015.7 0.0
21/12:00pm 29.6 22.5 -8.1 8 15.6 SE 22 35 12 19 1016.2 1016.1 0.0
21/11:30am 29.4 22.3 -8.2 8 15.5 ESE 22 41 12 22 1016.8 1016.7 0.0
21/11:00am 28.0 20.4 -9.3 8 14.8 ESE 24 41 13 22 1017.2 1017.1 0.0
21/10:30am 26.8 19.2 -10.2 8 14.3 SE 24 41 13 22 1017.6 1017.5 0.0
21/10:00am 26.7 19.6 -8.8 9 14.1 SE 22 39 12 21 1017.9 1017.8 0.0
21/09:45am 25.9 17.6 -9.4 9 13.7 SE 28 46 15 25 1017.9 1017.8 0.0
21/09:30am 25.4 16.7 -9.7 9 13.5 SE 30 43 16 23 1018.1 1018.0 0.0
21/09:00am 24.5 16.2 -9.1 10 12.9 SE 28 48 15 26 1018.2 1018.1 0.0
21/08:32am 23.1 14.7 -10.1 10 12.4 SE 28 46 15 25 1018.2 1018.1 0.0
21/08:30am 23.1 15.1 -10.1 10 12.4 SE 26 44 14 24 1018.1 1018.0 0.0
21/08:07am 22.2 13.9 -9.6 11 11.9 SE 28 46 15 25 1018.3 1018.2 0.0
21/08:00am 21.7 12.9 -10.0 11 11.6 SE 30 46 16 25 1018.1 1018.0 0.0
21/07:55am 21.7 13.3 -10.0 11 11.7 SE 28 46 15 25 1018.1 1018.0 0.0
21/07:30am 20.6 12.6 -9.8 12 11.1 SE 26 46 14 25 1018.1 1018.0 0.0
21/07:00am 19.4 12.2 -9.7 13 10.5 SE 22 41 12 22 1017.8 1017.7 0.0
21/06:30am 18.5 12.3 -9.5 14 10.0 SE 17 28 9 15 1017.4 1017.3 0.0
21/06:00am 18.2 11.9 -9.7 14 9.9 SE 17 26 9 14 1017.2 1017.1 0.0
21/05:30am 18.5 12.2 -10.4 13 10.2 SE 17 28 9 15 1016.7 1016.6 0.0
21/05:00am 18.8 12.5 -10.2 13 10.3 SE 17 33 9 18 1016.3 1016.2 0.0
21/04:30am 18.9 12.6 -10.1 13 10.3 SE 17 30 9 16 1016.0 1015.9 0.0

Other formats

Comma delimited format used in spreadsheet applications
http://www.bom.gov.au/fwo/IDW60801/IDW60801.94200.axf

JavaScript Object Notation format (JSON) in row-major order
http://www.bom.gov.au/fwo/IDW60801/IDW60801.94200.json

Data quality

Most of these data are generated automatically and are frequently updated. Quality checks on data are not normally performed. It is possible for incorrect values to appear. Refer to information at About Latest Weather Observations and please check the disclaimer before using these data.